Time;durP1;ratioP1;P1;durP2;ratioP2;P2;SDS_P1;SDS_P2;PMS_P1;PMS_P2;Temp;Humidity;BMP_temperature;BMP_pressure;BME280_temperature;BME280_humidity;BME280_pressure;Samples;Min_cycle;Max_cycle;Signal;HPM_P1;HPM_P2
2022/09/27 00:01:04;;;;;;;61.13;7.70;;;;;;;16.46;67.90;98776.50;4946671;28;119791;-72
2022/09/27 00:03:30;;;;;;;66.65;8.20;;;;;;;16.45;67.79;98777.78;4943667;28;120166;-72
2022/09/27 00:06:21;;;;;;;55.30;7.67;;;;;;;16.34;67.41;98766.22;4940564;28;119793;-72
2022/09/27 00:08:47;;;;;;;84.65;8.88;;;;;;;16.40;67.34;98773.13;4945027;28;120094;-72
2022/09/27 00:11:25;;;;;;;70.60;7.60;;;;;;;16.39;67.51;98777.16;4941443;28;121244;-73
2022/09/27 00:13:52;;;;;;;58.05;8.20;;;;;;;16.39;67.55;98776.41;4943670;28;119373;-72
2022/09/27 00:16:17;;;;;;;67.72;8.35;;;;;;;16.38;67.99;98772.91;4945372;28;119499;-72
2022/09/27 00:18:43;;;;;;;65.50;8.18;;;;;;;16.39;68.52;98770.88;4951240;28;119773;-72
2022/09/27 00:21:11;;;;;;;43.53;7.13;;;;;;;16.39;68.31;98768.88;4939772;28;119978;-73
2022/09/27 00:23:38;;;;;;;43.17;7.03;;;;;;;16.34;67.54;98766.97;4946913;28;120301;-72
2022/09/27 00:26:04;;;;;;;32.67;6.53;;;;;;;16.37;67.74;98774.19;4944699;28;120905;-72
2022/09/27 00:28:30;;;;;;;52.75;7.28;;;;;;;16.37;67.62;98776.22;4961863;28;120544;-71
2022/09/27 00:31:00;;;;;;;40.70;7.13;;;;;;;16.31;67.39;98770.03;4944945;28;119871;-72
2022/09/27 00:33:27;;;;;;;56.72;7.65;;;;;;;16.32;67.27;98777.06;4945546;28;120284;-73
2022/09/27 00:35:56;;;;;;;80.30;8.03;;;;;;;16.22;67.61;98769.22;4946301;28;119587;-71
2022/09/27 00:38:25;;;;;;;59.00;7.37;;;;;;;16.23;67.47;98772.72;4948879;28;120019;-71
2022/09/27 00:40:51;;;;;;;56.00;6.70;;;;;;;16.23;67.41;98776.22;4978345;28;119720;-73
2022/09/27 00:43:20;;;;;;;91.10;7.93;;;;;;;16.20;67.92;98782.09;4949746;28;120125;-72
2022/09/27 00:45:57;;;;;;;58.63;7.38;;;;;;;16.18;67.98;98779.88;4949787;28;120772;-74
2022/09/27 00:48:28;;;;;;;71.65;7.22;;;;;;;16.19;68.20;98777.84;4949529;28;119492;-74
2022/09/27 00:50:57;;;;;;;45.88;6.57;;;;;;;16.20;68.24;98765.50;4948102;28;119510;-74
2022/09/27 00:53:27;;;;;;;101.70;8.60;;;;;;;16.21;68.03;98767.00;4947584;28;121009;-74
2022/09/27 00:56:03;;;;;;;79.10;7.57;;;;;;;16.21;67.79;98761.47;4947494;28;120350;-73
2022/09/27 00:58:34;;;;;;;53.70;7.30;;;;;;;16.20;68.06;98757.19;4941206;28;119687;-75
2022/09/27 01:01:04;;;;;;;47.17;6.80;;;;;;;16.21;68.06;98761.47;4948941;28;119803;-74
2022/09/27 01:03:56;;;;;;;27.45;5.70;;;;;;;16.20;67.94;98755.19;4931881;28;119841;-74
2022/09/27 01:06:22;;;;;;;71.17;7.20;;;;;;;16.18;67.55;98749.44;4947021;28;119415;-74
2022/09/27 01:08:48;;;;;;;60.53;7.32;;;;;;;16.17;67.66;98755.50;4948000;28;120383;-74
2022/09/27 01:11:26;;;;;;;37.50;6.55;;;;;;;16.16;67.71;98756.78;4930865;28;120989;-74
2022/09/27 01:14:02;;;;;;;49.63;6.32;;;;;;;16.13;67.91;98744.03;4946374;28;119932;-72
2022/09/27 01:17:04;;;;;;;34.80;6.23;;;;;;;16.12;67.87;98746.06;4946385;28;120152;-70
2022/09/27 01:19:55;;;;;;;26.10;5.88;;;;;;;16.09;67.92;98749.91;4933854;28;120132;-74
2022/09/27 01:22:31;;;;;;;41.93;7.43;;;;;;;16.09;68.37;98747.13;4930785;28;120138;-74
2022/09/27 01:25:00;;;;;;;28.40;7.63;;;;;;;16.11;68.35;98754.91;4950775;28;120523;-74
2022/09/27 01:27:26;;;;;;;32.75;8.32;;;;;;;16.11;68.19;98752.88;4929599;28;120852;-74
2022/09/27 01:30:06;;;;;;;54.45;9.10;;;;;;;16.13;68.14;98746.81;4945667;28;119849;-74
2022/09/27 01:32:58;;;;;;;39.40;8.87;;;;;;;16.12;67.83;98759.16;4978785;28;119985;-74
2022/09/27 01:35:56;;;;;;;66.30;10.65;;;;;;;16.11;67.73;98752.13;4945522;28;120393;-74
2022/09/27 01:38:58;;;;;;;28.95;9.05;;;;;;;16.11;67.75;98755.63;4939167;28;119444;-74
2022/09/27 01:41:46;;;;;;;59.85;10.98;;;;;;;16.11;68.18;98752.88;4927881;28;119975;-74
2022/09/27 01:44:46;;;;;;;71.70;11.20;;;;;;;16.11;67.76;98746.59;4946151;28;119972;-74
2022/09/27 01:47:20;;;;;;;47.08;10.10;;;;;;;16.11;68.33;98754.91;4956430;28;119514;-74
2022/09/27 01:50:03;;;;;;;61.80;10.37;;;;;;;16.11;68.18;98746.59;4950378;28;120023;-74
2022/09/27 01:52:36;;;;;;;75.93;10.93;;;;;;;16.10;68.02;98750.63;4946173;28;119647;-74
2022/09/27 01:55:06;;;;;;;75.78;11.10;;;;;;;16.10;68.04;98747.88;4929772;28;122517;-73
2022/09/27 01:58:00;;;;;;;66.82;10.40;;;;;;;16.09;68.59;98738.06;4943164;28;120256;-74
2022/09/27 02:00:27;;;;;;;38.75;9.35;;;;;;;16.09;68.22;98733.31;4931052;28;120180;-71
2022/09/27 02:03:09;;;;;;;61.83;10.38;;;;;;;16.14;68.40;98734.47;4929932;28;119581;-74
2022/09/27 02:06:01;;;;;;;71.63;11.32;;;;;;;16.14;68.18;98737.97;4944876;28;120021;-74
2022/09/27 02:08:57;;;;;;;31.33;8.63;;;;;;;16.16;68.67;98743.72;4944527;28;119880;-74
2022/09/27 02:11:44;;;;;;;63.50;9.98;;;;;;;16.14;68.14;98734.47;4944912;28;119812;-74
2022/09/27 02:14:56;;;;;;;36.43;9.70;;;;;;;16.10;68.02;98736.81;4946985;28;120632;-76
2022/09/27 02:18:11;;;;;;;44.30;9.35;;;;;;;16.06;68.20;98739.88;4924596;28;120186;-74
2022/09/27 02:20:40;;;;;;;75.20;10.95;;;;;;;16.08;67.85;98737.31;4929921;28;120552;-75
2022/09/27 02:23:24;;;;;;;64.03;10.45;;;;;;;16.10;68.62;98736.81;4947263;28;119755;-74
2022/09/27 02:26:12;;;;;;;38.15;10.27;;;;;;;16.11;68.28;98730.00;4928138;28;119902;-74
2022/09/27 02:29:02;;;;;;;82.32;10.93;;;;;;;16.12;68.04;98723.94;4924583;28;120135;-75
2022/09/27 02:31:37;;;;;;;74.40;12.47;;;;;;;16.13;68.22;98725.41;4927742;28;119628;-71
2022/09/27 02:34:20;;;;;;;75.65;11.20;;;;;;;16.15;67.91;98727.66;4930172;28;120840;-74
2022/09/27 02:36:47;;;;;;;59.78;11.25;;;;;;;16.15;68.11;98724.88;4944970;28;119643;-74
2022/09/27 02:39:17;;;;;;;38.72;9.85;;;;;;;16.12;68.05;98721.16;4940688;28;119625;-74
2022/09/27 02:41:43;;;;;;;56.42;11.15;;;;;;;16.12;68.25;98721.16;4945411;28;120043;-75
2022/09/27 02:44:12;;;;;;;46.38;10.45;;;;;;;16.10;67.75;98717.47;4945774;28;119782;-74
2022/09/27 02:46:41;;;;;;;38.08;10.25;;;;;;;16.11;67.42;98730.75;4942181;28;120826;-74
2022/09/27 02:49:33;;;;;;;30.07;8.93;;;;;;;16.08;67.68;98723.50;4926738;28;120335;-74
2022/09/27 02:52:33;;;;;;;32.33;9.40;;;;;;;16.04;67.93;98714.03;4936430;28;119850;-75
2022/09/27 02:55:19;;;;;;;61.13;11.23;;;;;;;16.02;68.09;98722.13;4941710;28;119868;-74
2022/09/27 02:58:16;;;;;;;32.00;10.05;;;;;;;16.03;68.22;98712.56;4939932;28;119820;-74
2022/09/27 03:01:13;;;;;;;74.82;11.95;;;;;;;15.98;68.22;98705.13;4948684;28;119650;-73
2022/09/27 03:03:51;;;;;;;79.38;12.75;;;;;;;16.02;68.51;98714.59;4945955;28;120597;-73
2022/09/27 03:06:19;;;;;;;57.17;11.63;;;;;;;16.02;68.37;98711.81;4945785;28;120022;-71
2022/09/27 03:08:45;;;;;;;58.33;10.68;;;;;;;16.03;68.20;98710.53;4961934;28;121018;-71
2022/09/27 03:11:12;;;;;;;56.22;10.05;;;;;;;16.01;67.77;98704.06;4972512;28;120479;-71
2022/09/27 03:13:38;;;;;;;66.03;10.45;;;;;;;16.01;68.19;98690.22;4945338;28;119559;-74
2022/09/27 03:16:06;;;;;;;62.35;9.95;;;;;;;15.99;68.53;98690.03;4940999;28;120060;-73
2022/09/27 03:18:48;;;;;;;55.63;9.77;;;;;;;15.99;68.36;98692.78;4936511;28;122059;-74
2022/09/27 03:21:33;;;;;;;54.65;9.65;;;;;;;15.98;67.96;98696.84;4940166;28;120126;-74
2022/09/27 03:23:59;;;;;;;33.88;8.38;;;;;;;15.93;68.52;98699.19;4931386;28;119502;-74
2022/09/27 03:26:32;;;;;;;28.55;7.80;;;;;;;15.90;68.63;98705.06;4944409;28;119791;-74
2022/09/27 03:28:57;;;;;;;42.67;8.65;;;;;;;15.90;68.37;98705.78;4932121;28;120063;-74
2022/09/27 03:31:23;;;;;;;38.50;7.95;;;;;;;15.89;67.67;98704.31;4959104;28;119759;-74
2022/09/27 03:34:07;;;;;;;24.73;7.65;;;;;;;15.85;67.93;98698.38;4937228;28;119926;-75
2022/09/27 03:36:33;;;;;;;21.20;7.17;;;;;;;15.88;68.03;98697.28;4942595;28;120040;-73
2022/09/27 03:38:59;;;;;;;23.80;6.90;;;;;;;15.89;67.82;98704.31;4945062;28;119905;-74
2022/09/27 03:41:25;;;;;;;24.25;6.60;;;;;;;15.88;67.67;98705.59;4945744;28;120113;-74
2022/09/27 03:43:51;;;;;;;24.85;7.25;;;;;;;15.87;67.61;98704.09;4939915;28;119824;-74
2022/09/27 03:46:16;;;;;;;31.65;6.68;;;;;;;15.86;67.28;98705.38;4929827;28;121388;-74
2022/09/27 03:48:42;;;;;;;37.42;6.85;;;;;;;15.87;67.62;98704.09;4945199;28;119979;-74
2022/09/27 03:51:11;;;;;;;35.20;7.25;;;;;;;15.83;67.63;98695.38;4944626;28;120473;-71
2022/09/27 03:53:37;;;;;;;53.42;7.78;;;;;;;15.85;67.68;98701.13;4945093;28;120036;-74
2022/09/27 03:56:02;;;;;;;16.83;6.50;;;;;;;15.85;67.70;98692.84;4945225;28;119578;-75
2022/09/27 03:58:28;;;;;;;30.97;7.60;;;;;;;15.79;67.45;98692.19;4944189;28;120556;-74
2022/09/27 04:00:54;;;;;;;43.22;7.85;;;;;;;15.83;67.54;98695.38;4946187;28;120071;-74
2022/09/27 04:03:20;;;;;;;30.42;7.63;;;;;;;15.82;67.60;98696.66;4946279;28;119465;-71
2022/09/27 04:06:10;;;;;;;49.50;8.25;;;;;;;15.81;67.26;98697.91;4942542;28;119956;-74
2022/09/27 04:08:39;;;;;;;41.60;16.77;;;;;;;15.81;67.39;98692.41;4935382;28;119799;-75
2022/09/27 04:11:05;;;;;;;47.70;12.68;;;;;;;15.81;67.70;98695.16;4945999;28;120036;-74
2022/09/27 04:13:32;;;;;;;36.83;8.32;;;;;;;15.80;67.46;98695.69;4912809;28;120463;-75
2022/09/27 04:15:58;;;;;;;28.85;7.30;;;;;;;15.77;67.57;98696.75;4927269;28;119906;-74
2022/09/27 04:18:53;;;;;;;28.40;6.47;;;;;;;15.77;67.36;98696.75;4948271;28;120081;-71
2022/09/27 04:21:37;;;;;;;23.23;7.47;;;;;;;15.73;67.06;98697.09;4949980;28;119911;-75
2022/09/27 04:24:04;;;;;;;28.27;8.25;;;;;;;15.70;67.68;98695.41;4948239;28;119623;-74
2022/09/27 04:26:30;;;;;;;21.58;8.18;;;;;;;15.70;67.93;98691.88;4937205;28;120154;-74
2022/09/27 04:29:09;;;;;;;34.83;8.33;;;;;;;15.71;67.79;98693.38;4946375;28;119715;-75
2022/09/27 04:31:37;;;;;;;24.87;8.10;;;;;;;15.70;68.03;98689.88;4950266;28;119826;-74
2022/09/27 04:34:06;;;;;;;26.13;8.30;;;;;;;15.70;68.33;98689.88;4947968;28;119808;-73
2022/09/27 04:36:35;;;;;;;30.60;8.05;;;;;;;15.72;67.86;98692.84;4978506;28;119620;-71
2022/09/27 04:39:14;;;;;;;36.33;8.52;;;;;;;15.72;68.23;98692.84;4947632;28;120641;-74
2022/09/27 04:41:43;;;;;;;34.25;8.02;;;;;;;15.70;67.94;98681.56;4932682;28;119982;-74
2022/09/27 04:44:09;;;;;;;39.17;8.10;;;;;;;15.75;68.45;98688.25;4947386;28;120567;-74
2022/09/27 04:46:35;;;;;;;22.60;6.93;;;;;;;15.75;67.72;98693.78;4956873;28;119677;-74
2022/09/27 04:49:01;;;;;;;45.92;8.68;;;;;;;15.75;67.83;98691.78;4949130;28;119906;-71
2022/09/27 04:51:28;;;;;;;24.25;7.22;;;;;;;15.75;67.50;98693.78;4951323;28;121560;-71
2022/09/27 04:53:57;;;;;;;29.80;7.60;;;;;;;15.71;67.76;98688.59;4947999;28;119810;-74
2022/09/27 04:56:26;;;;;;;29.98;7.47;;;;;;;15.72;67.69;98695.59;4932509;28;119691;-73
2022/09/27 04:58:52;;;;;;;30.42;9.45;;;;;;;15.70;67.68;98695.41;4953624;28;120362;-74
2022/09/27 05:01:18;;;;;;;32.53;9.38;;;;;;;15.67;68.06;98693.72;4947604;28;120713;-76
2022/09/27 05:03:50;;;;;;;48.70;10.15;;;;;;;15.69;67.70;98685.63;4943189;28;119696;-73
2022/09/27 05:06:16;;;;;;;45.05;10.13;;;;;;;15.66;67.80;98686.69;4945113;28;120058;-74
2022/09/27 05:08:42;;;;;;;51.27;10.50;;;;;;;15.66;68.10;98692.22;4948406;28;119905;-74
2022/09/27 05:11:17;;;;;;;32.00;9.83;;;;;;;15.63;68.04;98693.28;4949152;28;119816;-74
2022/09/27 05:14:04;;;;;;;25.83;9.77;;;;;;;15.59;68.17;98688.06;4950803;28;120061;-74
2022/09/27 05:16:41;;;;;;;36.75;9.55;;;;;;;15.59;67.58;98687.31;4931703;28;120094;-74
2022/09/27 05:19:24;;;;;;;27.40;9.87;;;;;;;15.56;68.24;98699.41;4941344;28;119394;-73
2022/09/27 05:22:15;;;;;;;33.45;9.00;;;;;;;15.50;67.88;98682.94;4931011;28;119669;-74
2022/09/27 05:24:41;;;;;;;48.40;10.65;;;;;;;15.55;67.97;98695.16;4969307;28;119342;-77
2022/09/27 05:27:11;;;;;;;50.45;10.90;;;;;;;15.55;68.56;98693.13;4946445;28;119630;-74
2022/09/27 05:29:37;;;;;;;37.55;9.75;;;;;;;15.51;68.41;98689.22;4931910;28;120041;-74
2022/09/27 05:32:10;;;;;;;40.53;10.27;;;;;;;15.55;68.12;98695.91;4927313;28;121261;-74
2022/09/27 05:34:56;;;;;;;32.07;9.93;;;;;;;15.52;68.16;98696.97;4924058;28;119964;-74
2022/09/27 05:37:22;;;;;;;24.40;9.25;;;;;;;15.52;68.06;98701.75;4952699;28;120434;-74
2022/09/27 05:39:48;;;;;;;40.88;10.00;;;;;;;15.54;68.59;98708.22;4946966;28;120549;-74
2022/09/27 05:42:16;;;;;;;33.33;9.52;;;;;;;15.49;68.26;98706.31;4939503;28;119755;-74
2022/09/27 05:44:45;;;;;;;26.35;9.45;;;;;;;15.50;68.37;98704.31;4943058;28;120206;-74
2022/09/27 05:47:26;;;;;;;33.87;9.60;;;;;;;15.48;68.73;98701.34;4974802;28;120205;-75
2022/09/27 05:49:53;;;;;;;69.75;12.13;;;;;;;15.53;68.51;98712.28;4927011;28;120567;-74
2022/09/27 05:52:19;;;;;;;34.43;10.20;;;;;;;15.56;68.71;98711.19;4957645;28;122125;-73
2022/09/27 05:54:45;;;;;;;34.55;10.00;;;;;;;15.56;68.17;98716.72;4927136;28;121728;-76
2022/09/27 05:57:12;;;;;;;33.80;9.50;;;;;;;15.56;68.12;98710.47;4930147;28;119804;-75
2022/09/27 05:59:43;;;;;;;47.42;10.77;;;;;;;15.58;68.43;98705.16;4948926;28;119871;-74
2022/09/27 06:02:20;;;;;;;35.20;10.15;;;;;;;15.56;68.20;98711.19;4952264;28;119538;-73
2022/09/27 06:05:06;;;;;;;52.60;10.77;;;;;;;15.57;68.25;98712.69;4944751;28;119687;-74
2022/09/27 06:07:56;;;;;;;31.50;10.85;;;;;;;15.59;68.79;98709.41;4941731;28;120088;-74
2022/09/27 06:10:46;;;;;;;52.77;11.77;;;;;;;15.61;68.89;98715.16;4943487;28;119815;-74
2022/09/27 06:13:14;;;;;;;44.28;11.48;;;;;;;15.64;68.59;98714.13;4947230;28;120031;-74
2022/09/27 06:15:52;;;;;;;55.50;12.47;;;;;;;15.65;68.43;98713.59;4930895;28;119502;-73
2022/09/27 06:18:17;;;;;;;45.88;11.70;;;;;;;15.67;68.44;98723.38;4947469;28;119634;-74
2022/09/27 06:20:46;;;;;;;46.17;11.40;;;;;;;15.65;68.15;98712.84;4946513;28;119853;-74
2022/09/27 06:23:21;;;;;;;48.20;11.45;;;;;;;15.69;68.17;98710.50;4949225;28;120797;-74
2022/09/27 06:25:49;;;;;;;28.65;10.25;;;;;;;15.69;68.28;98712.50;4977789;28;120161;-74
2022/09/27 06:28:44;;;;;;;24.63;9.38;;;;;;;15.68;68.01;98711.78;4951397;28;120347;-71
2022/09/27 06:31:11;;;;;;;24.48;9.88;;;;;;;15.67;68.02;98721.34;4939730;28;119531;-75
2022/09/27 06:34:07;;;;;;;33.03;9.82;;;;;;;15.62;68.17;98711.16;4913985;28;119801;-74
2022/09/27 06:36:33;;;;;;;30.90;10.30;;;;;;;15.69;68.35;98721.53;4942941;28;119539;-74
2022/09/27 06:39:00;;;;;;;39.22;10.93;;;;;;;15.72;67.94;98716.97;4929527;28;119928;-75
2022/09/27 06:41:36;;;;;;;55.22;13.05;;;;;;;15.74;68.43;98725.47;4940693;28;119922;-74
2022/09/27 06:44:23;;;;;;;36.15;13.38;;;;;;;15.76;68.52;98726.44;4943137;28;120317;-74
2022/09/27 06:47:16;;;;;;;32.92;12.48;;;;;;;15.78;67.84;98721.09;4948652;28;120138;-74
2022/09/27 06:50:04;;;;;;;40.25;13.38;;;;;;;15.79;68.24;98728.13;4936270;28;119889;-72
2022/09/27 06:52:32;;;;;;;48.35;14.30;;;;;;;15.78;68.39;98731.41;4945234;28;119977;-72
2022/09/27 06:54:58;;;;;;;50.07;16.00;;;;;;;15.81;69.17;98730.34;4929627;28;120140;-74
2022/09/27 07:00:28;;;;;;;52.67;15.48;;;;;;;15.82;68.79;98737.38;4943299;28;119576;-74
2022/09/27 07:03:33;;;;;;;41.00;14.23;;;;;;;15.77;68.62;98741.72;4945974;28;119803;-74
2022/09/27 07:06:22;;;;;;;62.78;15.82;;;;;;;15.83;68.41;98745.13;4951881;28;120035;-74
2022/09/27 07:09:29;;;;;;;85.97;16.10;;;;;;;15.85;68.54;98742.59;4945785;28;119718;-74
2022/09/27 07:11:55;;;;;;;57.03;13.27;;;;;;;15.85;68.22;98742.59;4944677;28;120576;-75
2022/09/27 07:14:20;;;;;;;26.30;12.40;;;;;;;15.87;68.39;98745.56;4939516;28;119756;-76
2022/09/27 07:16:47;;;;;;;36.30;13.48;;;;;;;15.89;68.66;98750.56;4945075;28;120305;-74
2022/09/27 07:19:14;;;;;;;53.13;13.55;;;;;;;15.89;68.47;98745.03;4941947;28;121171;-74
2022/09/27 07:21:39;;;;;;;41.72;11.18;;;;;;;15.91;68.72;98745.97;4925872;28;120033;-73
2022/09/27 07:24:05;;;;;;;39.45;12.82;;;;;;;15.94;68.71;98749.69;4944742;28;120170;-73
2022/09/27 07:26:35;;;;;;;77.43;13.63;;;;;;;15.94;68.40;98753.22;4924488;28;120964;-74
2022/09/27 07:29:03;;;;;;;27.92;11.25;;;;;;;15.92;68.47;98747.47;4941534;28;119893;-75
2022/09/27 07:31:30;;;;;;;25.38;11.15;;;;;;;15.94;68.15;98755.22;4947764;28;120093;-74
2022/09/27 07:33:57;;;;;;;54.70;12.80;;;;;;;15.92;68.93;98749.50;4925768;28;119684;-72
2022/09/27 07:36:24;;;;;;;48.15;11.60;;;;;;;15.93;68.44;98756.50;4956497;28;120339;-71
2022/09/27 07:38:49;;;;;;;28.85;10.48;;;;;;;15.98;68.78;98763.19;4924342;28;121895;-75
2022/09/27 07:41:18;;;;;;;44.47;11.43;;;;;;;15.97;68.80;98767.97;4924529;28;120125;-72
2022/09/27 07:43:58;;;;;;;49.63;11.52;;;;;;;16.03;69.06;98768.59;4941709;28;119608;-74
2022/09/27 07:46:24;;;;;;;40.60;11.57;;;;;;;16.06;68.82;98767.53;4941803;28;120058;-71
2022/09/27 07:49:07;;;;;;;34.75;10.50;;;;;;;16.08;68.11;98773.28;4944369;28;120049;-71
2022/09/27 07:51:36;;;;;;;38.33;10.77;;;;;;;16.10;68.79;98770.00;4948453;28;120274;-74
2022/09/27 07:54:20;;;;;;;45.47;10.27;;;;;;;16.09;67.99;98771.25;4951601;28;120420;-74
2022/09/27 07:57:21;;;;;;;34.65;10.55;;;;;;;16.11;68.75;98777.00;4944764;28;119734;-74
2022/09/27 08:00:11;;;;;;;52.38;10.18;;;;;;;16.13;68.86;98763.41;4945201;28;119909;-74
2022/09/27 08:02:39;;;;;;;29.20;8.70;;;;;;;16.19;68.42;98769.53;4946450;28;119394;-73
2022/09/27 08:05:06;;;;;;;40.15;9.55;;;;;;;16.23;68.46;98773.47;4976816;28;119535;-74
2022/09/27 08:07:55;;;;;;;62.10;10.23;;;;;;;16.24;68.49;98771.44;4946401;28;120306;-74
2022/09/27 08:10:30;;;;;;;31.67;8.15;;;;;;;16.24;68.24;98768.69;4976872;28;120416;-73
2022/09/27 08:12:58;;;;;;;45.03;9.13;;;;;;;16.29;68.33;98770.56;4942681;28;119978;-71
2022/09/27 08:15:24;;;;;;;36.42;8.15;;;;;;;16.28;68.26;98769.09;4926440;28;121266;-76
2022/09/27 08:17:50;;;;;;;34.90;8.50;;;;;;;16.31;68.44;98783.88;4948524;28;119377;-73
2022/09/27 08:20:22;;;;;;;55.17;9.20;;;;;;;16.30;69.03;98772.06;4939426;28;120324;-72
2022/09/27 08:23:03;;;;;;;37.77;9.10;;;;;;;16.37;68.67;98776.22;4935532;28;120248;-72
2022/09/27 08:25:42;;;;;;;24.52;7.50;;;;;;;16.42;68.05;98783.66;4944717;28;120593;-74
2022/09/27 08:28:50;;;;;;;34.45;7.93;;;;;;;16.41;68.47;98782.91;4933448;28;121422;-74
2022/09/27 08:31:24;;;;;;;36.47;8.38;;;;;;;16.47;68.46;98789.06;4940301;28;120031;-72
2022/09/27 08:33:52;;;;;;;31.73;7.90;;;;;;;16.48;68.28;98785.00;4927423;28;119726;-72
2022/09/27 08:36:20;;;;;;;38.35;7.82;;;;;;;16.51;68.55;98789.47;4927608;28;121952;-71
2022/09/27 08:38:49;;;;;;;53.55;8.65;;;;;;;16.56;68.35;98796.16;4945492;28;120757;-72
2022/09/27 08:41:42;;;;;;;60.47;8.70;;;;;;;16.57;68.34;98790.09;4947623;28;120171;-72
2022/09/27 08:44:17;;;;;;;21.48;6.85;;;;;;;16.60;67.70;98791.06;4944117;28;120191;-74
2022/09/27 08:47:14;;;;;;;28.77;6.38;;;;;;;16.61;67.86;98792.53;4945140;28;120175;-74
2022/09/27 08:50:01;;;;;;;42.10;7.63;;;;;;;16.60;68.08;98791.06;4944337;28;120267;-74
2022/09/27 08:52:41;;;;;;;32.00;6.95;;;;;;;16.66;68.38;98799.22;4945943;28;119929;-72
2022/09/27 08:55:29;;;;;;;52.58;7.00;;;;;;;16.63;67.80;98797.53;4943285;28;119721;-73
2022/09/27 08:57:57;;;;;;;43.03;6.70;;;;;;;16.67;67.89;98798.72;4943264;28;120406;-74
2022/09/27 09:00:27;;;;;;;53.63;6.55;;;;;;;16.64;67.89;98796.25;4944128;28;119605;-71
2022/09/27 09:03:00;;;;;;;29.65;5.55;;;;;;;16.64;67.10;98801.78;4943815;28;120105;-73
2022/09/27 09:05:33;;;;;;;45.47;6.82;;;;;;;16.63;67.68;98797.53;4931494;28;119573;-74
2022/09/27 09:08:15;;;;;;;38.93;6.00;;;;;;;16.66;68.34;98815.81;4943463;28;119967;-74
2022/09/27 09:14:15;;;;;;;35.63;5.25;;;;;;;16.64;67.86;98810.09;4960238;28;120017;-72
2022/09/27 09:17:11;;;;;;;48.70;6.43;;;;;;;16.66;68.29;98808.28;4941509;28;120821;-72
2022/09/27 09:19:57;;;;;;;59.45;6.68;;;;;;;16.64;68.70;98810.84;4943757;28;119935;-73
2022/09/27 09:22:53;;;;;;;20.83;4.50;;;;;;;16.69;68.21;98803.72;4944182;28;120012;-72
2022/09/27 09:25:32;;;;;;;29.42;4.70;;;;;;;16.70;67.99;98807.97;4976180;28;120513;-72
2022/09/27 09:28:08;;;;;;;26.67;4.93;;;;;;;16.71;67.50;98814.97;4948679;28;120302;-72
2022/09/27 09:31:09;;;;;;;31.23;4.57;;;;;;;16.70;67.20;98816.28;4946060;28;120458;-72
2022/09/27 09:33:43;;;;;;;47.80;5.75;;;;;;;16.71;67.42;98814.97;4976667;28;120039;-71
2022/09/27 09:36:41;;;;;;;44.73;5.20;;;;;;;16.69;67.08;98817.56;4940632;28;119787;-72
2022/09/27 09:39:37;;;;;;;23.50;4.93;;;;;;;16.64;66.62;98821.91;4933291;28;121065;-72
2022/09/27 09:42:23;;;;;;;20.77;4.93;;;;;;;16.62;66.86;98821.69;4942816;28;119951;-73
2022/09/27 09:45:03;;;;;;;42.95;5.05;;;;;;;16.59;66.83;98817.25;4927302;28;120139;-72
2022/09/27 09:47:53;;;;;;;34.53;5.37;;;;;;;16.57;67.58;98820.53;4975803;28;119539;-73
2022/09/27 09:50:28;;;;;;;16.23;4.20;;;;;;;16.54;67.32;98818.81;4924463;28;120301;-73
2022/09/27 09:53:11;;;;;;;31.73;5.00;;;;;;;16.48;67.67;98820.97;4946606;28;120100;-73
2022/09/27 09:55:41;;;;;;;17.90;4.00;;;;;;;16.47;67.20;98832.59;4943599;28;120744;-73
2022/09/27 09:58:13;;;;;;;47.00;5.57;;;;;;;16.47;68.20;98824.28;4943119;28;119813;-72
2022/09/27 10:00:46;;;;;;;27.13;4.30;;;;;;;16.45;68.21;98822.06;4942039;28;120056;-73
2022/09/27 10:03:12;;;;;;;21.02;3.67;;;;;;;16.42;67.22;98825.91;4943730;28;119916;-75
2022/09/27 10:05:44;;;;;;;27.65;3.92;;;;;;;16.41;66.98;98832.72;4941031;28;120075;-72
2022/09/27 10:08:17;;;;;;;24.63;4.18;;;;;;;16.40;67.87;98834.00;4941873;28;119815;-73
2022/09/27 10:10:53;;;;;;;26.17;4.27;;;;;;;16.38;68.07;98831.00;4943311;28;120229;-72
2022/09/27 10:13:37;;;;;;;14.15;3.70;;;;;;;16.37;67.15;98834.31;4940510;28;119622;-72
2022/09/27 10:16:11;;;;;;;19.63;4.13;;;;;;;16.35;67.72;98836.88;4947465;28;119557;-72
2022/09/27 10:18:40;;;;;;;24.88;4.47;;;;;;;16.26;67.47;98824.94;4939743;28;119624;-73
2022/09/27 10:21:24;;;;;;;14.25;3.70;;;;;;;16.34;67.34;98841.66;4944661;28;119871;-72
2022/09/27 10:24:03;;;;;;;22.02;4.50;;;;;;;16.33;67.76;98837.41;4960165;28;120060;-72
2022/09/27 10:26:50;;;;;;;21.80;4.40;;;;;;;16.27;68.37;98834.75;4942388;28;120173;-72
2022/09/27 10:29:19;;;;;;;30.50;4.60;;;;;;;16.30;68.03;98830.16;4926965;28;120118;-72
2022/09/27 10:31:47;;;;;;;28.67;4.72;;;;;;;16.31;68.44;98831.66;4976514;28;119634;-72
2022/09/27 10:34:29;;;;;;;26.10;4.22;;;;;;;16.28;67.39;98839.00;4928516;28;120008;-72
2022/09/27 10:37:12;;;;;;;22.67;4.30;;;;;;;16.24;67.56;98844.09;4939672;28;119781;-72
2022/09/27 10:39:46;;;;;;;25.15;4.72;;;;;;;16.23;68.01;98841.88;4951378;28;120318;-75
2022/09/27 10:42:36;;;;;;;40.87;5.13;;;;;;;16.27;68.10;98845.81;4945791;28;119641;-73
2022/09/27 10:45:27;;;;;;;38.35;6.22;;;;;;;16.30;68.38;98849.53;4942776;28;119987;-73
2022/09/27 10:47:58;;;;;;;24.35;5.20;;;;;;;16.30;67.89;98846.75;4946017;28;120388;-73
2022/09/27 10:50:38;;;;;;;22.65;5.68;;;;;;;16.33;68.02;98842.19;4965895;28;119825;-72
2022/09/27 10:53:20;;;;;;;35.50;6.30;;;;;;;16.33;68.00;98844.97;4963876;28;122248;-73
2022/09/27 10:55:55;;;;;;;27.85;6.32;;;;;;;16.33;68.30;98844.97;4930601;28;120108;-72
2022/09/27 10:58:31;;;;;;;42.50;7.13;;;;;;;16.32;68.70;98849.72;4934520;28;119865;-73
2022/09/27 11:01:02;;;;;;;19.35;5.30;;;;;;;16.34;67.40;98841.66;4928837;28;119996;-72
2022/09/27 11:03:34;;;;;;;37.65;6.63;;;;;;;16.34;67.55;98847.19;4953467;28;119530;-72
2022/09/27 11:06:19;;;;;;;17.73;5.65;;;;;;;16.39;68.36;98843.56;4952735;28;120291;-72
2022/09/27 11:08:47;;;;;;;23.25;5.80;;;;;;;16.41;68.06;98834.72;4940616;28;120374;-72
2022/09/27 11:11:27;;;;;;;38.80;6.78;;;;;;;16.39;67.58;98843.56;4940864;28;119915;-74
2022/09/27 11:14:02;;;;;;;23.65;6.88;;;;;;;16.40;68.32;98845.06;4942008;28;121706;-72
2022/09/27 11:16:45;;;;;;;36.13;7.43;;;;;;;16.43;68.72;98843.97;4943608;28;120151;-73
2022/09/27 11:19:14;;;;;;;28.70;6.07;;;;;;;16.42;67.66;98839.72;4943266;28;119559;-73
2022/09/27 11:22:22;;;;;;;33.28;6.57;;;;;;;16.43;68.45;98843.97;4941438;28;120048;-73
2022/09/27 11:25:11;;;;;;;51.67;7.18;;;;;;;16.41;68.66;98846.53;4957312;28;119798;-72
2022/09/27 11:27:50;;;;;;;16.77;5.55;;;;;;;16.45;67.71;98848.97;4945576;28;120387;-72
2022/09/27 11:30:22;;;;;;;24.83;6.32;;;;;;;16.47;67.90;98849.94;4926923;28;120033;-74
2022/09/27 11:33:20;;;;;;;29.20;6.70;;;;;;;16.52;68.59;98845.56;4943309;28;119491;-73
2022/09/27 11:36:12;;;;;;;36.55;7.07;;;;;;;16.53;68.45;98853.31;4941575;28;120669;-72
2022/09/27 11:39:01;;;;;;;24.27;6.70;;;;;;;16.56;68.35;98857.81;4940896;28;119807;-73
2022/09/27 11:41:56;;;;;;;18.73;6.15;;;;;;;16.58;67.61;98860.78;4943959;28;120222;-72
2022/09/27 11:44:47;;;;;;;29.50;7.20;;;;;;;16.59;68.19;98853.22;4941586;28;119795;-72
2022/09/27 11:48:02;;;;;;;26.38;6.90;;;;;;;16.62;68.28;98854.16;4940622;28;119996;-72
2022/09/27 11:51:02;;;;;;;64.70;9.10;;;;;;;16.64;68.75;98865.44;4930155;28;120147;-73
2022/09/27 11:53:35;;;;;;;51.47;7.97;;;;;;;16.66;68.55;98852.59;4949382;28;120277;-73
2022/09/27 11:56:45;;;;;;;32.70;6.68;;;;;;;16.68;67.90;98858.31;4924043;28;120166;-72
2022/09/27 11:59:27;;;;;;;14.70;5.82;;;;;;;16.66;67.40;98858.13;4937577;28;119920;-73
2022/09/27 12:02:12;;;;;;;20.97;6.80;;;;;;;16.74;68.65;98855.44;4941731;28;119814;-72
2022/09/27 12:04:41;;;;;;;30.55;7.47;;;;;;;16.80;68.44;98856.06;4958372;28;120312;-72